createdAt,value
2023-01-21T00:01:01.078Z,46.05
2023-01-21T00:03:28.389Z,45.85
2023-01-21T00:05:58.086Z,45.43
2023-01-21T00:08:26.447Z,43.05
2023-01-21T00:10:54.207Z,49.38
2023-01-21T00:13:21.659Z,46.33
2023-01-21T00:15:49.113Z,45.47
2023-01-21T00:18:16.312Z,44.92
2023-01-21T00:20:45.631Z,45.35
2023-01-21T00:23:12.990Z,49.15
2023-01-21T00:25:40.252Z,45.78
2023-01-21T00:28:07.557Z,46.50
2023-01-21T00:30:36.732Z,49.35
2023-01-21T00:33:04.397Z,48.45
2023-01-21T00:35:31.634Z,45.55
2023-01-21T00:37:58.799Z,46.03
2023-01-21T00:40:26.190Z,47.43
2023-01-21T00:42:53.353Z,45.83
2023-01-21T00:45:20.634Z,49.80
2023-01-21T00:47:47.787Z,46.95
2023-01-21T00:50:15.333Z,54.05
2023-01-21T00:52:42.715Z,43.75
2023-01-21T00:55:09.958Z,47.22
2023-01-21T00:57:37.300Z,45.13
2023-01-21T01:00:05.542Z,48.70
2023-01-21T01:02:32.730Z,53.33
2023-01-21T01:04:59.883Z,52.20
2023-01-21T01:07:27.052Z,46.80
2023-01-21T01:09:54.247Z,48.42
2023-01-21T01:12:21.425Z,47.90
2023-01-21T01:14:48.564Z,50.90
2023-01-21T01:17:15.839Z,47.35
2023-01-21T01:19:43.055Z,45.80
2023-01-21T01:22:10.319Z,45.03
2023-01-21T01:24:37.467Z,47.33
2023-01-21T01:27:04.718Z,48.08
2023-01-21T01:29:31.930Z,46.50
2023-01-21T01:31:59.617Z,47.65
2023-01-21T01:34:26.765Z,49.00
2023-01-21T01:36:53.888Z,46.25
2023-01-21T01:39:21.057Z,47.40
2023-01-21T01:41:48.227Z,48.43
2023-01-21T01:44:53.175Z,46.75
2023-01-21T01:47:23.408Z,47.77
2023-01-21T01:49:51.139Z,45.70
2023-01-21T01:52:19.737Z,47.25
2023-01-21T01:54:51.473Z,49.05
2023-01-21T01:57:21.162Z,45.88
2023-01-21T01:59:49.576Z,46.60
2023-01-21T02:02:19.476Z,47.90
2023-01-21T02:04:56.784Z,48.60
2023-01-21T02:07:26.316Z,48.85
2023-01-21T02:09:54.305Z,44.78
2023-01-21T02:12:22.408Z,44.10
2023-01-21T02:14:50.218Z,45.83
2023-01-21T02:17:48.047Z,44.63
2023-01-21T02:20:36.967Z,44.28
2023-01-21T02:23:07.188Z,48.00
2023-01-21T02:26:02.429Z,50.33
2023-01-21T02:28:29.543Z,45.80
2023-01-21T02:31:05.536Z,44.88
2023-01-21T02:34:01.831Z,51.00
2023-01-21T02:36:45.171Z,47.03
2023-01-21T02:39:36.580Z,49.03
2023-01-21T02:42:26.060Z,47.78
2023-01-21T02:45:03.594Z,50.72
2023-01-21T02:47:48.207Z,45.38
2023-01-21T02:50:24.771Z,46.70
2023-01-21T02:53:02.632Z,50.78
2023-01-21T02:55:37.199Z,47.95
2023-01-21T02:58:12.011Z,52.22
2023-01-21T03:01:05.378Z,47.35
2023-01-21T03:04:08.290Z,47.17
2023-01-21T03:07:08.918Z,48.47
2023-01-21T03:09:37.161Z,49.60
2023-01-21T03:12:26.803Z,48.95
2023-01-21T03:15:29.086Z,48.03
2023-01-21T03:18:09.081Z,47.80
2023-01-21T03:20:49.232Z,46.67
2023-01-21T03:23:21.393Z,46.53
2023-01-21T03:25:50.386Z,49.15
2023-01-21T03:28:22.907Z,45.25
2023-01-21T03:30:57.535Z,46.40
2023-01-21T03:33:25.539Z,45.03
2023-01-21T03:35:55.624Z,44.10
2023-01-21T03:38:29.543Z,49.78
2023-01-21T03:41:06.011Z,45.97
2023-01-21T03:43:33.563Z,46.53
2023-01-21T03:46:09.898Z,46.17
2023-01-21T03:48:50.386Z,49.65
2023-01-21T03:51:25.711Z,48.00
2023-01-21T03:53:57.232Z,51.80
2023-01-21T03:56:25.783Z,49.00
2023-01-21T03:58:53.743Z,45.33
2023-01-21T04:01:21.381Z,52.28
2023-01-21T04:03:49.681Z,46.22
2023-01-21T04:06:20.098Z,48.03
2023-01-21T04:08:47.369Z,49.23
2023-01-21T04:11:14.691Z,48.70
2023-01-21T04:13:42.129Z,47.63
2023-01-21T04:16:09.384Z,50.28
2023-01-21T04:18:38.856Z,48.40
2023-01-21T04:21:06.108Z,52.35
2023-01-21T04:23:33.343Z,47.95
2023-01-21T04:26:00.615Z,48.20
2023-01-21T04:28:27.770Z,48.97
2023-01-21T04:30:54.952Z,52.40
2023-01-21T04:33:22.142Z,48.00
2023-01-21T04:35:49.320Z,49.30
2023-01-21T04:38:16.546Z,48.63
2023-01-21T04:40:44.271Z,50.20
2023-01-21T04:43:11.482Z,53.95
2023-01-21T04:45:38.666Z,48.50
2023-01-21T04:48:06.086Z,51.80
2023-01-21T04:50:33.377Z,52.13
2023-01-21T04:53:00.543Z,45.53
2023-01-21T04:55:27.747Z,51.30
2023-01-21T04:57:54.946Z,54.65
2023-01-21T05:00:22.434Z,53.20
2023-01-21T05:02:49.629Z,52.70
2023-01-21T05:05:16.891Z,53.30
2023-01-21T05:07:44.144Z,55.33
2023-01-21T05:10:16.934Z,53.10
2023-01-21T05:12:44.436Z,47.15
2023-01-21T05:15:11.780Z,50.20
2023-01-21T05:17:38.988Z,48.22
2023-01-21T05:20:06.702Z,46.47
2023-01-21T05:22:33.895Z,48.75
2023-01-21T05:25:01.112Z,47.97
2023-01-21T05:27:28.392Z,48.07
2023-01-21T05:29:56.982Z,50.90
2023-01-21T05:32:24.668Z,49.83
2023-01-21T05:34:51.851Z,48.88
2023-01-21T05:37:19.085Z,50.58
2023-01-21T05:39:46.259Z,46.83
2023-01-21T05:42:13.521Z,48.13
2023-01-21T05:44:40.919Z,47.30
2023-01-21T05:47:08.719Z,49.30
2023-01-21T05:49:36.182Z,54.07
2023-01-21T05:52:03.659Z,45.93
2023-01-21T05:54:31.651Z,50.20
2023-01-21T05:56:58.849Z,48.30
2023-01-21T05:59:26.048Z,52.45
2023-01-21T06:01:53.232Z,45.28
2023-01-21T06:04:22.434Z,46.15
2023-01-21T06:06:50.983Z,52.13
2023-01-21T06:09:18.185Z,45.03
2023-01-21T06:11:45.348Z,49.15
2023-01-21T06:14:12.615Z,44.08
2023-01-21T06:16:39.806Z,49.05
2023-01-21T06:19:07.118Z,47.00
2023-01-21T06:21:34.303Z,46.85
2023-01-21T06:24:02.525Z,54.47
2023-01-21T06:26:29.797Z,47.80
2023-01-21T06:28:57.331Z,48.53
2023-01-21T06:31:24.597Z,46.73
2023-01-21T06:33:52.269Z,48.70
2023-01-21T06:36:19.529Z,44.40
2023-01-21T06:38:46.689Z,43.37
2023-01-21T06:41:13.958Z,43.78
2023-01-21T06:43:41.098Z,50.65
2023-01-21T06:46:08.312Z,51.70
2023-01-21T06:48:35.468Z,43.53
2023-01-21T06:51:02.944Z,45.03
2023-01-21T06:53:30.151Z,42.07
2023-01-21T06:55:57.279Z,45.85
2023-01-21T06:58:24.483Z,45.88
2023-01-21T07:00:51.667Z,44.83
2023-01-21T07:03:18.860Z,46.20
2023-01-21T07:05:46.009Z,47.93
2023-01-21T07:08:13.212Z,52.75
2023-01-21T07:10:40.402Z,42.22
2023-01-21T07:13:07.599Z,43.75
2023-01-21T07:15:34.817Z,45.03
2023-01-21T07:18:02.050Z,46.53
2023-01-21T07:20:29.310Z,43.03
2023-01-21T07:22:56.521Z,42.92
2023-01-21T07:25:24.142Z,49.47
2023-01-21T07:27:51.269Z,48.58
2023-01-21T07:30:19.902Z,43.55
2023-01-21T07:32:47.677Z,47.55
2023-01-21T07:35:15.318Z,45.17
2023-01-21T07:37:42.859Z,45.08
2023-01-21T07:40:10.558Z,44.35
2023-01-21T07:42:37.766Z,42.60
2023-01-21T07:45:05.398Z,41.70
2023-01-21T07:47:32.660Z,46.20
2023-01-21T07:50:04.767Z,47.22
2023-01-21T07:52:32.435Z,47.17
2023-01-21T07:54:59.719Z,50.50
2023-01-21T07:57:27.140Z,45.53
2023-01-21T07:59:54.413Z,47.72
2023-01-21T08:02:21.868Z,42.78
2023-01-21T08:04:49.203Z,48.25
2023-01-21T08:07:16.391Z,53.72
2023-01-21T08:09:43.629Z,53.40
2023-01-21T08:12:10.876Z,48.05
2023-01-21T08:14:39.041Z,47.38
2023-01-21T08:17:06.265Z,49.95
2023-01-21T08:19:33.482Z,47.15
2023-01-21T08:22:00.669Z,51.73
2023-01-21T08:24:27.886Z,51.83
2023-01-21T08:26:58.931Z,45.17
2023-01-21T08:29:26.786Z,50.40
2023-01-21T08:31:54.232Z,45.17
2023-01-21T08:34:21.457Z,51.60
2023-01-21T08:36:48.677Z,46.17
2023-01-21T08:39:16.493Z,44.40
2023-01-21T08:41:44.649Z,49.67
2023-01-21T08:44:12.081Z,44.65
2023-01-21T08:46:39.250Z,46.38
2023-01-21T08:49:06.758Z,44.85
2023-01-21T08:51:33.943Z,49.58
2023-01-21T08:54:01.288Z,44.58
2023-01-21T08:56:28.434Z,45.03
2023-01-21T08:58:57.295Z,48.10
2023-01-21T09:01:25.630Z,51.28
2023-01-21T09:03:57.386Z,44.60
2023-01-21T09:06:27.115Z,48.17
2023-01-21T09:08:55.356Z,47.33
2023-01-21T09:11:23.481Z,44.65
2023-01-21T09:13:50.880Z,45.88
2023-01-21T09:16:20.811Z,42.47
2023-01-21T09:18:48.910Z,47.60
2023-01-21T09:21:16.715Z,47.08
2023-01-21T09:23:44.319Z,48.40
2023-01-21T09:26:20.114Z,47.35
2023-01-21T09:29:00.921Z,44.28
2023-01-21T09:31:30.123Z,47.47
2023-01-21T09:34:00.203Z,48.10
2023-01-21T09:36:30.071Z,43.83
2023-01-21T09:38:57.924Z,42.07
2023-01-21T09:41:37.390Z,42.03
2023-01-21T09:44:22.510Z,40.85
2023-01-21T09:46:49.742Z,42.10
2023-01-21T09:49:32.392Z,40.15
2023-01-21T09:52:21.269Z,40.50
2023-01-21T09:54:48.745Z,40.53
2023-01-21T09:57:28.066Z,40.40
2023-01-21T10:00:32.994Z,40.23
2023-01-21T10:03:04.460Z,42.40
2023-01-21T10:05:52.451Z,41.88
2023-01-21T10:08:31.962Z,42.47
2023-01-21T10:11:10.939Z,40.75
2023-01-21T10:14:15.740Z,42.75
2023-01-21T10:17:04.388Z,42.83
2023-01-21T10:19:45.401Z,42.67
2023-01-21T10:22:20.278Z,44.55
2023-01-21T10:25:01.087Z,42.13
2023-01-21T10:27:35.078Z,47.15
2023-01-21T10:30:09.095Z,46.87
2023-01-21T10:32:39.368Z,41.17
2023-01-21T10:35:18.514Z,46.50
2023-01-21T10:37:50.595Z,42.25
2023-01-21T10:40:45.377Z,40.10
2023-01-21T10:43:23.094Z,33.17
2023-01-21T10:46:27.330Z,16.15
2023-01-21T10:49:23.930Z,15.60
2023-01-21T10:52:31.014Z,17.48
2023-01-21T10:55:16.387Z,16.40
2023-01-21T10:57:53.507Z,16.50
2023-01-21T11:00:29.418Z,17.27
2023-01-21T11:03:10.640Z,16.45
2023-01-21T11:05:39.058Z,17.38
2023-01-21T11:08:06.984Z,18.05
2023-01-21T11:10:34.157Z,17.73
2023-01-21T11:13:01.295Z,17.60
2023-01-21T11:15:33.481Z,17.55
2023-01-21T11:18:00.766Z,17.85
2023-01-21T11:20:42.745Z,18.30
2023-01-21T11:23:35.241Z,18.27
2023-01-21T11:26:27.580Z,17.65
2023-01-21T11:29:24.875Z,17.60
2023-01-21T11:32:05.268Z,17.27
2023-01-21T11:34:33.694Z,16.47
2023-01-21T11:37:06.442Z,17.20
2023-01-21T11:39:38.296Z,17.70
2023-01-21T11:42:12.027Z,17.83
2023-01-21T11:44:53.063Z,18.63
2023-01-21T11:47:39.597Z,19.03
2023-01-21T11:50:34.737Z,18.45
2023-01-21T11:53:14.158Z,19.00
2023-01-21T11:55:42.991Z,18.50
2023-01-21T11:58:21.857Z,19.27
2023-01-21T12:00:51.200Z,19.73
2023-01-21T12:03:21.611Z,19.20
2023-01-21T12:05:50.277Z,20.95
2023-01-21T12:08:29.769Z,21.57
2023-01-21T12:11:02.024Z,19.55
2023-01-21T12:13:43.267Z,21.10
2023-01-21T12:16:25.330Z,20.90
2023-01-21T12:19:10.823Z,18.33
2023-01-21T12:22:15.664Z,18.67
2023-01-21T12:25:20.980Z,17.45
2023-01-21T12:28:27.936Z,19.27
2023-01-21T12:31:29.226Z,20.70
2023-01-21T12:34:10.631Z,26.53
2023-01-21T12:36:46.254Z,29.30
2023-01-21T12:39:33.147Z,33.53
2023-01-21T12:42:00.328Z,36.28
2023-01-21T12:44:50.421Z,37.75
2023-01-21T12:47:20.601Z,37.28
2023-01-21T12:50:06.352Z,37.90
2023-01-21T12:52:57.370Z,37.70
2023-01-21T12:55:28.335Z,38.28
2023-01-21T12:58:05.682Z,39.17
2023-01-21T13:00:37.753Z,38.95
2023-01-21T13:03:20.040Z,37.78
2023-01-21T13:06:09.161Z,37.30
2023-01-21T13:08:54.211Z,38.97
2023-01-21T13:11:24.159Z,37.70
2023-01-21T13:13:57.303Z,39.22
2023-01-21T13:16:26.372Z,36.10
2023-01-21T13:18:55.464Z,34.53
2023-01-21T13:21:35.930Z,35.47
2023-01-21T13:24:24.703Z,35.92
2023-01-21T13:27:24.226Z,37.75
2023-01-21T13:30:22.560Z,37.13
2023-01-21T13:32:55.866Z,38.00
2023-01-21T13:35:47.075Z,38.17
2023-01-21T13:38:25.332Z,37.38
2023-01-21T13:41:26.577Z,36.85
2023-01-21T13:44:32.378Z,37.42
2023-01-21T13:47:03.435Z,37.47
2023-01-21T13:49:39.399Z,36.22
2023-01-21T13:52:23.196Z,35.92
2023-01-21T13:55:21.894Z,36.15
2023-01-21T13:58:10.424Z,36.55
2023-01-21T14:00:49.843Z,36.83
2023-01-21T14:03:25.120Z,36.33
2023-01-21T14:06:32.434Z,36.88
2023-01-21T14:09:08.510Z,36.58
2023-01-21T14:11:50.348Z,38.40
2023-01-21T14:14:36.251Z,37.38
2023-01-21T14:17:12.494Z,39.38
2023-01-21T14:20:07.712Z,39.15
2023-01-21T14:22:54.956Z,38.65
2023-01-21T14:25:43.859Z,36.78
2023-01-21T14:28:19.493Z,39.45
2023-01-21T14:31:02.414Z,40.40
2023-01-21T14:34:00.842Z,36.88
2023-01-21T14:36:44.005Z,36.50
2023-01-21T14:39:48.358Z,36.97
2023-01-21T14:42:25.039Z,40.53
2023-01-21T14:44:53.531Z,38.42
2023-01-21T14:47:25.020Z,37.13
2023-01-21T14:49:54.244Z,36.88
2023-01-21T14:52:32.473Z,36.55
2023-01-21T14:55:00.391Z,38.67
2023-01-21T14:57:33.424Z,36.03
2023-01-21T15:00:27.916Z,36.15
2023-01-21T15:03:16.598Z,38.27
2023-01-21T15:05:50.861Z,39.65
2023-01-21T15:08:45.420Z,40.60
2023-01-21T15:11:29.067Z,40.78
2023-01-21T15:14:21.693Z,38.20
2023-01-21T15:16:49.155Z,37.87
2023-01-21T15:19:37.426Z,40.13
2023-01-21T15:22:39.003Z,39.15
2023-01-21T15:25:19.353Z,38.42
2023-01-21T15:28:23.968Z,39.83
2023-01-21T15:31:07.661Z,40.80
2023-01-21T15:34:02.854Z,39.72
2023-01-21T15:36:42.295Z,41.10
2023-01-21T15:39:18.524Z,40.03
2023-01-21T15:41:54.275Z,39.90
2023-01-21T15:44:41.639Z,40.27
2023-01-21T15:47:26.504Z,42.10
2023-01-21T15:49:56.442Z,41.10
2023-01-21T15:52:42.509Z,41.17
2023-01-21T15:55:36.961Z,42.65
2023-01-21T15:58:34.900Z,41.83
2023-01-21T16:01:21.811Z,43.83
2023-01-21T16:03:58.119Z,43.58
2023-01-21T16:06:43.082Z,43.38
2023-01-21T16:09:22.183Z,42.08
2023-01-21T16:12:08.989Z,40.78
2023-01-21T16:15:06.612Z,40.53
2023-01-21T16:17:55.025Z,40.60
2023-01-21T16:20:22.583Z,39.88
2023-01-21T16:22:53.439Z,41.25
2023-01-21T16:25:23.136Z,41.80
2023-01-21T16:27:53.743Z,41.20
2023-01-21T16:30:26.617Z,42.15
2023-01-21T16:33:14.376Z,41.53
2023-01-21T16:35:50.257Z,40.22
2023-01-21T16:38:28.983Z,43.03
2023-01-21T16:41:23.765Z,41.45
2023-01-21T16:43:52.862Z,39.70
2023-01-21T16:46:26.744Z,38.45
2023-01-21T16:48:57.407Z,37.73
2023-01-21T16:51:34.381Z,38.95
2023-01-21T16:54:19.952Z,42.58
2023-01-21T16:56:58.366Z,43.63
2023-01-21T16:59:39.206Z,45.03
2023-01-21T17:02:20.614Z,46.93
2023-01-21T17:04:48.219Z,45.77
2023-01-21T17:07:32.508Z,44.15
2023-01-21T17:10:06.584Z,45.03
2023-01-21T17:12:36.341Z,47.03
2023-01-21T17:15:16.052Z,46.72
2023-01-21T17:17:43.736Z,46.95
2023-01-21T17:20:43.864Z,46.90
2023-01-21T17:23:22.998Z,47.72
2023-01-21T17:26:05.552Z,47.53
2023-01-21T17:28:44.118Z,48.75
2023-01-21T17:31:25.934Z,47.10
2023-01-21T17:34:17.334Z,46.45
2023-01-21T17:36:47.570Z,48.20
2023-01-21T17:39:17.094Z,49.60
2023-01-21T17:41:46.354Z,48.55
2023-01-21T17:44:22.315Z,48.58
2023-01-21T17:46:53.224Z,47.78
2023-01-21T17:49:24.456Z,49.90
2023-01-21T17:51:54.270Z,49.75
2023-01-21T17:54:27.329Z,51.42
2023-01-21T17:56:57.181Z,50.20
2023-01-21T17:59:41.414Z,49.60
2023-01-21T18:02:13.978Z,50.60
2023-01-21T18:04:43.230Z,49.90
2023-01-21T18:07:23.983Z,53.23
2023-01-21T18:09:52.563Z,56.00
2023-01-21T18:12:20.243Z,57.85
2023-01-21T18:14:47.842Z,54.40
2023-01-21T18:17:20.671Z,50.40
2023-01-21T18:19:48.054Z,52.22
2023-01-21T18:22:24.216Z,52.20
2023-01-21T18:24:51.351Z,52.83
2023-01-21T18:27:20.557Z,51.65
2023-01-21T18:29:48.013Z,54.38
2023-01-21T18:32:15.563Z,50.97
2023-01-21T18:34:42.752Z,52.08
2023-01-21T18:37:14.484Z,49.95
2023-01-21T18:39:41.809Z,53.13
2023-01-21T18:42:16.973Z,60.65
2023-01-21T18:44:44.734Z,57.83
2023-01-21T18:47:17.188Z,54.67
2023-01-21T18:49:45.204Z,54.80
2023-01-21T18:52:15.858Z,54.93
2023-01-21T18:54:43.278Z,53.13
2023-01-21T18:57:22.617Z,51.45
2023-01-21T18:59:49.944Z,52.60
2023-01-21T19:02:20.233Z,56.93
2023-01-21T19:04:47.827Z,55.72
2023-01-21T19:07:16.667Z,54.90
2023-01-21T19:09:46.679Z,55.38
2023-01-21T19:12:15.219Z,54.80
2023-01-21T19:14:42.668Z,52.07
2023-01-21T19:17:32.259Z,53.07
2023-01-21T19:19:59.498Z,53.13
2023-01-21T19:22:26.650Z,53.28
2023-01-21T19:24:53.823Z,54.92
2023-01-21T19:27:30.334Z,52.70
2023-01-21T19:29:57.549Z,51.78
2023-01-21T19:32:24.855Z,55.13
2023-01-21T19:34:52.215Z,56.57
2023-01-21T19:37:23.212Z,44.33
2023-01-21T19:39:50.363Z,47.05
2023-01-21T19:42:18.095Z,45.45
2023-01-21T19:44:45.287Z,46.25
2023-01-21T19:47:19.958Z,45.45
2023-01-21T19:49:47.754Z,45.30
2023-01-21T19:52:15.294Z,53.93
2023-01-21T19:54:42.425Z,50.50
2023-01-21T19:57:16.257Z,43.30
2023-01-21T19:59:44.745Z,50.85
2023-01-21T20:02:13.842Z,56.23
2023-01-21T20:04:41.003Z,54.95
2023-01-21T20:07:13.677Z,55.63
2023-01-21T20:09:41.139Z,52.63
2023-01-21T20:12:10.872Z,50.53
2023-01-21T20:14:38.075Z,50.92
2023-01-21T20:17:05.554Z,50.00
2023-01-21T20:19:32.848Z,46.83
2023-01-21T20:22:02.490Z,48.13
2023-01-21T20:24:33.401Z,48.60
2023-01-21T20:27:04.261Z,38.72
2023-01-21T20:29:32.886Z,42.53
2023-01-21T20:32:00.096Z,43.08
2023-01-21T20:34:30.785Z,42.13
2023-01-21T20:36:59.131Z,41.75
2023-01-21T20:39:26.354Z,43.58
2023-01-21T20:41:53.583Z,46.97
2023-01-21T20:44:20.802Z,37.95
2023-01-21T20:46:48.612Z,47.75
2023-01-21T20:49:15.836Z,46.00
2023-01-21T20:51:42.979Z,39.15
2023-01-21T20:54:10.170Z,49.10
2023-01-21T20:56:38.358Z,44.00
2023-01-21T20:59:05.527Z,40.10
2023-01-21T21:01:34.930Z,39.28
2023-01-21T21:04:02.462Z,37.93
2023-01-21T21:06:29.697Z,47.30
2023-01-21T21:08:57.304Z,46.95
2023-01-21T21:11:24.538Z,39.10
2023-01-21T21:13:52.404Z,40.90
2023-01-21T21:16:29.651Z,43.28
2023-01-21T21:18:56.940Z,41.43
2023-01-21T21:21:24.380Z,47.97
2023-01-21T21:23:52.533Z,43.78
2023-01-21T21:26:22.932Z,43.63
2023-01-21T21:28:51.154Z,46.17
2023-01-21T21:31:18.496Z,48.92
2023-01-21T21:33:46.154Z,41.38
2023-01-21T21:36:14.360Z,43.05
2023-01-21T21:38:42.082Z,41.53
2023-01-21T21:41:39.668Z,40.60
2023-01-21T21:44:08.280Z,45.45
2023-01-21T21:46:55.365Z,41.90
2023-01-21T21:49:22.761Z,39.92
2023-01-21T21:51:49.940Z,40.42
2023-01-21T21:54:18.509Z,41.30
2023-01-21T21:56:46.707Z,43.28
2023-01-21T21:59:14.788Z,44.57
2023-01-21T22:01:43.440Z,39.25
2023-01-21T22:04:10.996Z,40.07
2023-01-21T22:06:38.365Z,40.00
2023-01-21T22:09:05.965Z,41.90
2023-01-21T22:11:33.608Z,46.72
2023-01-21T22:14:03.888Z,44.05
2023-01-21T22:16:31.691Z,39.92
2023-01-21T22:19:00.701Z,38.20
2023-01-21T22:21:33.348Z,47.22
2023-01-21T22:24:02.795Z,42.20
2023-01-21T22:26:30.224Z,44.63
2023-01-21T22:28:57.464Z,38.70
2023-01-21T22:31:27.781Z,41.70
2023-01-21T22:33:56.110Z,41.35
2023-01-21T22:36:25.453Z,39.30
2023-01-21T22:38:53.136Z,39.30
2023-01-21T22:41:23.022Z,38.88
2023-01-21T22:43:50.635Z,39.43
2023-01-21T22:46:20.826Z,35.95
2023-01-21T22:48:48.396Z,39.03
2023-01-21T22:51:18.524Z,37.92
2023-01-21T22:53:46.059Z,36.73
2023-01-21T22:56:15.341Z,36.50
2023-01-21T22:58:42.834Z,37.08
2023-01-21T23:01:33.613Z,40.00
2023-01-21T23:04:01.119Z,40.22
2023-01-21T23:06:28.723Z,38.42
2023-01-21T23:08:56.066Z,34.85
2023-01-21T23:11:23.287Z,38.47
2023-01-21T23:13:52.973Z,38.83
2023-01-21T23:16:21.145Z,38.58
2023-01-21T23:18:49.002Z,37.95
2023-01-21T23:21:19.439Z,38.08
2023-01-21T23:23:46.833Z,39.67
2023-01-21T23:26:14.746Z,36.15
2023-01-21T23:28:42.948Z,36.38
2023-01-21T23:31:13.151Z,36.60
2023-01-21T23:33:41.440Z,38.17
2023-01-21T23:36:11.237Z,36.80
2023-01-21T23:38:39.310Z,34.90
2023-01-21T23:41:08.821Z,33.83
2023-01-21T23:43:37.021Z,33.70
2023-01-21T23:46:05.780Z,33.58
2023-01-21T23:48:33.207Z,34.23
2023-01-21T23:51:05.677Z,34.37
2023-01-21T23:53:33.783Z,33.97
2023-01-21T23:56:14.821Z,29.98
2023-01-21T23:58:42.153Z,30.80
